createdAt,value
2023-02-22T00:01:56.674Z,22.25
2023-02-22T00:04:24.417Z,24.67
2023-02-22T00:06:52.286Z,28.45
2023-02-22T00:09:21.742Z,28.77
2023-02-22T00:11:49.480Z,21.80
2023-02-22T00:14:18.971Z,24.23
2023-02-22T00:16:46.738Z,20.27
2023-02-22T00:19:14.578Z,17.57
2023-02-22T00:21:44.352Z,13.58
2023-02-22T00:24:24.230Z,12.93
2023-02-22T00:26:57.231Z,8.98
2023-02-22T00:29:25.692Z,11.18
2023-02-22T00:31:53.781Z,11.73
2023-02-22T00:34:23.622Z,10.25
2023-02-22T00:36:51.321Z,10.25
2023-02-22T00:39:18.644Z,9.58
2023-02-22T00:41:46.505Z,9.68
2023-02-22T00:44:14.246Z,7.70
2023-02-22T00:46:42.151Z,6.55
2023-02-22T00:51:36.268Z,6.03
2023-02-22T00:54:04.913Z,7.03
2023-02-22T00:56:34.088Z,6.00
2023-02-22T00:59:01.758Z,5.75
2023-02-22T01:01:31.655Z,4.22
2023-02-22T01:03:59.539Z,4.85
2023-02-22T01:06:30.252Z,3.60
2023-02-22T01:11:26.573Z,3.62
2023-02-22T01:16:22.362Z,4.65
2023-02-22T01:18:51.356Z,5.45
2023-02-22T01:21:18.651Z,7.30
2023-02-22T01:23:47.011Z,9.58
2023-02-22T01:26:17.139Z,7.92
2023-02-22T01:28:44.952Z,6.00
2023-02-22T01:31:12.800Z,8.75
2023-02-22T01:33:40.993Z,5.92
2023-02-22T01:36:10.883Z,7.47
2023-02-22T01:38:39.330Z,8.13
2023-02-22T01:41:07.386Z,5.28
2023-02-22T01:43:36.850Z,6.30
2023-02-22T01:46:09.704Z,6.03
2023-02-22T01:51:23.343Z,5.65
2023-02-22T01:54:14.843Z,5.55
2023-02-22T01:59:11.647Z,5.50
2023-02-22T02:04:11.174Z,6.05
2023-02-22T02:09:30.622Z,6.50
2023-02-22T02:14:27.367Z,6.33
2023-02-22T02:16:56.102Z,4.12
2023-02-22T02:19:58.862Z,4.83
2023-02-22T02:22:54.857Z,4.37
2023-02-22T02:25:49.285Z,4.40
2023-02-22T02:28:54.876Z,4.00
2023-02-22T02:36:43.898Z,4.90
2023-02-22T02:39:30.460Z,6.03
2023-02-22T02:42:03.702Z,7.03
2023-02-22T02:44:42.539Z,8.38
2023-02-22T02:47:26.192Z,14.03
2023-02-22T02:52:46.163Z,13.50
2023-02-22T02:57:41.949Z,14.90
2023-02-22T03:02:59.627Z,12.58
2023-02-22T03:05:35.586Z,8.33
2023-02-22T03:08:27.003Z,7.65
2023-02-22T03:11:13.746Z,6.10
2023-02-22T03:16:35.871Z,6.20
2023-02-22T03:19:34.976Z,6.62
2023-02-22T03:30:11.796Z,5.35
2023-02-22T03:32:44.145Z,5.90
2023-02-22T03:37:55.484Z,10.08
2023-02-22T03:40:34.997Z,18.32
2023-02-22T03:45:30.926Z,15.35
2023-02-22T03:50:29.688Z,7.12
2023-02-22T03:55:25.676Z,5.20
2023-02-22T04:00:24.382Z,4.00
2023-02-22T04:02:52.444Z,3.75
2023-02-22T04:05:20.775Z,3.87
2023-02-22T04:10:17.115Z,3.50
2023-02-22T04:15:16.165Z,4.47
2023-02-22T04:17:44.463Z,6.28
2023-02-22T04:20:14.394Z,8.60
2023-02-22T04:22:43.931Z,8.68
2023-02-22T04:25:11.752Z,9.13
2023-02-22T04:27:39.983Z,11.75
2023-02-22T04:30:09.290Z,17.98
2023-02-22T04:32:38.589Z,17.52
2023-02-22T04:35:07.675Z,17.70
2023-02-22T04:37:36.714Z,17.87
2023-02-22T04:40:07.587Z,18.62
2023-02-22T04:42:36.752Z,19.00
2023-02-22T04:47:35.851Z,44.10
2023-02-22T04:52:30.727Z,30.88
2023-02-22T04:54:58.583Z,46.65
2023-02-22T04:57:26.724Z,41.50
2023-02-22T04:59:54.450Z,30.10
2023-02-22T05:02:23.919Z,27.62
2023-02-22T05:04:51.814Z,22.80
2023-02-22T05:07:19.627Z,19.87
2023-02-22T05:09:47.503Z,18.32
2023-02-22T05:12:15.740Z,16.30
2023-02-22T05:14:44.162Z,15.95
2023-02-22T05:17:12.314Z,14.68
2023-02-22T05:19:41.637Z,19.12
2023-02-22T05:22:09.372Z,17.12
2023-02-22T05:24:38.033Z,18.95
2023-02-22T05:27:05.779Z,25.32
2023-02-22T05:29:33.384Z,28.23
2023-02-22T05:34:28.302Z,30.32
2023-02-22T05:36:56.345Z,37.78
2023-02-22T05:39:24.008Z,42.00
2023-02-22T05:41:51.965Z,47.17
2023-02-22T05:46:46.095Z,52.78
2023-02-22T05:51:40.530Z,39.90
2023-02-22T05:54:08.224Z,37.15
2023-02-22T05:56:36.222Z,34.58
2023-02-22T05:59:04.155Z,37.88
2023-02-22T06:01:31.620Z,39.20
2023-02-22T06:03:59.527Z,32.38
2023-02-22T06:06:27.642Z,28.30
2023-02-22T06:08:55.880Z,28.62
2023-02-22T06:13:53.494Z,26.55
2023-02-22T06:18:48.576Z,26.33
2023-02-22T06:23:45.282Z,28.45
2023-02-22T06:26:18.899Z,35.63
2023-02-22T06:28:47.193Z,46.45
2023-02-22T06:31:15.262Z,51.60
2023-02-22T06:33:43.467Z,49.88
2023-02-22T06:36:11.431Z,47.83
2023-02-22T06:38:39.422Z,43.58
2023-02-22T06:43:35.849Z,28.30
2023-02-22T06:46:04.084Z,29.50
2023-02-22T06:48:30.711Z,31.00
2023-02-22T06:50:58.632Z,29.90
2023-02-22T06:53:26.687Z,27.85
2023-02-22T06:55:54.869Z,25.30
2023-02-22T06:58:22.753Z,28.47
2023-02-22T07:00:50.808Z,29.18
2023-02-22T07:03:19.011Z,26.00
2023-02-22T07:05:48.346Z,25.57
2023-02-22T07:08:16.041Z,25.82
2023-02-22T07:10:44.330Z,22.67
2023-02-22T07:13:12.285Z,28.95
2023-02-22T07:15:39.950Z,28.17
2023-02-22T07:18:09.768Z,23.92
2023-02-22T07:23:16.888Z,20.20
2023-02-22T07:25:44.193Z,49.95
2023-02-22T07:28:12.616Z,14.20
2023-02-22T07:30:40.704Z,6.97
2023-02-22T07:35:47.785Z,4.20
2023-02-22T07:38:20.787Z,3.22
2023-02-22T07:40:48.990Z,4.17
2023-02-22T07:43:23.989Z,4.25
2023-02-22T07:45:56.656Z,4.67
2023-02-22T07:48:27.766Z,4.53
2023-02-22T07:50:56.180Z,4.03
2023-02-22T07:55:54.897Z,8.20
2023-02-22T07:58:26.492Z,4.97
2023-02-22T08:00:54.640Z,5.58
2023-02-22T08:05:56.019Z,6.65
2023-02-22T08:10:50.855Z,3.90
2023-02-22T08:15:46.518Z,17.17
2023-02-22T08:18:18.019Z,5.47
2023-02-22T08:20:48.110Z,6.17
2023-02-22T08:23:17.522Z,6.50
2023-02-22T08:25:45.780Z,4.40
2023-02-22T08:28:17.717Z,4.75
2023-02-22T08:30:45.890Z,4.50
2023-02-22T08:33:18.175Z,6.35
2023-02-22T08:38:28.363Z,5.10
2023-02-22T08:40:56.127Z,19.48
2023-02-22T08:43:24.463Z,8.05
2023-02-22T08:45:52.685Z,5.17
2023-02-22T08:48:21.068Z,6.47
2023-02-22T08:50:49.424Z,4.53
2023-02-22T08:53:17.987Z,3.83
2023-02-22T08:55:46.162Z,3.72
2023-02-22T08:58:13.971Z,4.17
2023-02-22T09:00:43.993Z,4.35
2023-02-22T09:05:43.291Z,3.50
2023-02-22T09:10:38.473Z,5.22
2023-02-22T09:13:06.700Z,3.37
2023-02-22T09:15:35.668Z,5.40
2023-02-22T09:20:32.394Z,3.50
2023-02-22T09:23:01.868Z,5.50
2023-02-22T09:25:29.695Z,3.50
2023-02-22T09:27:57.701Z,4.55
2023-02-22T09:30:32.649Z,3.30
2023-02-22T09:33:14.019Z,7.58
2023-02-22T09:35:45.780Z,4.33
2023-02-22T09:38:16.845Z,4.95
2023-02-22T09:40:53.815Z,5.47
2023-02-22T09:43:27.351Z,9.03
2023-02-22T09:46:27.678Z,6.55
2023-02-22T09:49:05.880Z,6.83
2023-02-22T09:51:41.618Z,4.53
2023-02-22T09:54:22.814Z,7.58
2023-02-22T09:59:21.864Z,6.95
2023-02-22T10:01:57.883Z,16.23
2023-02-22T10:04:36.647Z,6.00
2023-02-22T10:07:29.937Z,6.80
2023-02-22T10:10:02.522Z,6.08
2023-02-22T10:12:44.872Z,6.47
2023-02-22T10:15:48.291Z,5.72
2023-02-22T10:18:44.865Z,11.35
2023-02-22T10:21:23.722Z,6.12
2023-02-22T10:24:45.754Z,4.83
2023-02-22T10:30:24.536Z,10.93
2023-02-22T10:35:27.551Z,8.88
2023-02-22T10:37:59.946Z,17.80
2023-02-22T10:43:11.045Z,7.22
2023-02-22T10:45:40.398Z,3.87
2023-02-22T10:48:17.851Z,7.28
2023-02-22T10:50:48.030Z,4.12
2023-02-22T10:53:15.914Z,5.22
2023-02-22T10:56:12.480Z,3.02
2023-02-22T11:04:22.491Z,2.80
2023-02-22T11:07:20.238Z,4.40
2023-02-22T11:09:58.917Z,3.40
2023-02-22T11:15:21.658Z,7.58
2023-02-22T11:17:54.642Z,5.42
2023-02-22T11:20:34.333Z,6.25
2023-02-22T11:23:04.773Z,6.45
2023-02-22T11:30:50.643Z,7.90
2023-02-22T11:35:54.163Z,4.58
2023-02-22T11:38:25.911Z,8.90
2023-02-22T11:41:17.481Z,5.08
2023-02-22T11:43:49.544Z,6.15
2023-02-22T11:49:10.072Z,5.67
2023-02-22T11:52:07.608Z,6.15
2023-02-22T11:57:46.044Z,5.30
2023-02-22T12:00:25.501Z,2.90
2023-02-22T12:03:20.375Z,3.85
2023-02-22T12:06:24.243Z,4.85
2023-02-22T12:09:09.138Z,3.50
2023-02-22T12:12:09.332Z,4.80
2023-02-22T12:15:15.454Z,4.67
2023-02-22T12:18:02.667Z,4.60
2023-02-22T12:23:09.217Z,3.20
2023-02-22T12:25:48.065Z,3.30
2023-02-22T12:28:27.219Z,3.72
2023-02-22T12:31:15.805Z,3.75
2023-02-22T12:36:14.500Z,4.30
2023-02-22T12:41:13.511Z,3.17
2023-02-22T12:43:52.967Z,4.08
2023-02-22T12:49:04.471Z,6.67
2023-02-22T12:51:40.761Z,6.15
2023-02-22T12:54:22.008Z,4.60
2023-02-22T12:56:57.092Z,7.37
2023-02-22T12:59:50.627Z,5.55
2023-02-22T13:02:42.354Z,5.70
2023-02-22T13:05:18.447Z,8.35
2023-02-22T13:08:28.714Z,8.20
2023-02-22T13:11:19.401Z,6.65
2023-02-22T13:14:07.357Z,6.83
2023-02-22T13:16:40.445Z,9.90
2023-02-22T13:19:21.554Z,7.30
2023-02-22T13:22:12.285Z,7.40
2023-02-22T13:25:00.480Z,7.20
2023-02-22T13:29:58.458Z,6.42
2023-02-22T13:35:21.015Z,4.35
2023-02-22T13:43:29.966Z,5.75
2023-02-22T13:48:47.834Z,4.20
2023-02-22T13:51:52.096Z,3.35
2023-02-22T13:54:31.310Z,3.60
2023-02-22T13:56:59.023Z,4.10
2023-02-22T13:59:36.148Z,4.95
2023-02-22T14:02:07.394Z,6.20
2023-02-22T14:04:40.300Z,6.03
2023-02-22T14:07:30.751Z,5.28
2023-02-22T14:10:00.555Z,5.22
2023-02-22T14:12:49.227Z,4.65
2023-02-22T14:17:46.289Z,4.30
2023-02-22T14:20:27.206Z,8.93
2023-02-22T14:22:55.232Z,11.97
2023-02-22T14:28:31.297Z,5.78
2023-02-22T14:31:33.310Z,6.95
2023-02-22T14:37:03.758Z,8.45
2023-02-22T14:39:45.474Z,9.35
2023-02-22T14:42:33.826Z,8.88
2023-02-22T14:45:12.970Z,6.08
2023-02-22T14:48:09.387Z,6.87
2023-02-22T14:50:45.437Z,6.28
2023-02-22T14:56:06.368Z,7.75
2023-02-22T14:59:00.292Z,6.97
2023-02-22T15:01:47.521Z,8.33
2023-02-22T15:04:25.189Z,10.88
2023-02-22T15:06:55.134Z,11.88
2023-02-22T15:09:29.685Z,9.70
2023-02-22T15:12:08.372Z,9.33
2023-02-22T15:14:39.430Z,8.58
2023-02-22T15:17:18.492Z,11.35
2023-02-22T15:22:29.253Z,15.10
2023-02-22T15:25:02.258Z,19.27
2023-02-22T15:27:30.013Z,17.82
2023-02-22T15:30:02.583Z,18.45
2023-02-22T15:32:44.828Z,22.85
2023-02-22T15:35:21.602Z,25.95
2023-02-22T15:38:05.568Z,33.00
2023-02-22T15:40:34.749Z,21.57
2023-02-22T15:45:35.058Z,16.17
2023-02-22T15:48:03.050Z,15.40
2023-02-22T15:50:33.669Z,15.85
2023-02-22T15:53:27.051Z,16.37
2023-02-22T15:55:58.717Z,25.85
2023-02-22T16:01:06.735Z,25.15
2023-02-22T16:03:41.858Z,28.38
2023-02-22T16:08:54.789Z,36.68
2023-02-22T16:11:34.696Z,32.67
2023-02-22T16:14:07.247Z,31.40
2023-02-22T16:16:40.941Z,30.88
2023-02-22T16:19:26.253Z,30.92
2023-02-22T16:24:33.089Z,34.80
2023-02-22T16:29:45.325Z,45.28
2023-02-22T16:34:41.133Z,54.75
2023-02-22T16:37:21.493Z,45.08
2023-02-22T16:39:52.273Z,39.95
2023-02-22T16:42:22.487Z,39.78
2023-02-22T16:47:17.815Z,37.30
2023-02-22T16:49:52.197Z,34.70
2023-02-22T16:52:20.515Z,30.17
2023-02-22T16:54:51.359Z,32.93
2023-02-22T16:57:22.477Z,38.58
2023-02-22T16:59:52.267Z,35.28
2023-02-22T17:02:20.576Z,38.13
2023-02-22T17:04:51.597Z,36.05
2023-02-22T17:09:52.915Z,41.77
2023-02-22T17:12:20.848Z,36.33
2023-02-22T17:14:50.617Z,36.60
2023-02-22T17:17:18.199Z,37.55
2023-02-22T17:19:45.907Z,41.23
2023-02-22T17:24:46.241Z,37.48
2023-02-22T17:29:41.764Z,37.30
2023-02-22T17:34:40.244Z,81.20
2023-02-22T17:39:35.048Z,66.07
2023-02-22T17:42:03.042Z,31.40
2023-02-22T17:44:31.280Z,23.07
2023-02-22T17:47:10.378Z,22.93
2023-02-22T17:49:38.909Z,22.40
2023-02-22T17:52:06.972Z,22.85
2023-02-22T17:54:33.854Z,22.80
2023-02-22T17:57:01.817Z,21.23
2023-02-22T17:59:29.895Z,25.40
2023-02-22T18:01:57.542Z,30.08
2023-02-22T18:04:25.373Z,31.93
2023-02-22T18:06:53.116Z,28.73
2023-02-22T18:09:20.848Z,27.20
2023-02-22T18:11:48.714Z,26.27
2023-02-22T18:14:16.768Z,30.70
2023-02-22T18:16:46.574Z,23.50
2023-02-22T18:19:17.736Z,23.70
2023-02-22T18:21:46.163Z,24.82
2023-02-22T18:24:13.685Z,26.40
2023-02-22T18:26:41.507Z,27.98
2023-02-22T18:29:11.096Z,29.67
2023-02-22T18:31:39.118Z,32.15
2023-02-22T18:36:33.413Z,35.00
2023-02-22T18:39:01.197Z,32.35
2023-02-22T18:41:29.413Z,28.07
2023-02-22T18:43:59.366Z,24.63
2023-02-22T18:46:29.163Z,26.02
2023-02-22T18:48:59.058Z,25.75
2023-02-22T18:51:28.916Z,27.07
2023-02-22T18:56:34.202Z,30.37
2023-02-22T18:59:05.911Z,30.70
2023-02-22T19:01:40.347Z,33.28
2023-02-22T19:04:10.394Z,66.50
2023-02-22T19:09:08.115Z,32.93
2023-02-22T19:11:36.843Z,27.48
2023-02-22T19:14:07.892Z,26.80
2023-02-22T19:16:35.620Z,28.60
2023-02-22T19:19:03.485Z,28.52
2023-02-22T19:21:32.520Z,29.67
2023-02-22T19:24:04.549Z,30.27
2023-02-22T19:26:32.427Z,28.80
2023-02-22T19:29:07.509Z,29.25
2023-02-22T19:34:11.481Z,30.25
2023-02-22T19:39:06.818Z,31.95
2023-02-22T19:44:01.903Z,29.45
2023-02-22T19:48:56.226Z,31.25
2023-02-22T19:51:27.747Z,30.02
2023-02-22T19:54:05.884Z,28.65
2023-02-22T19:56:34.962Z,27.37
2023-02-22T20:01:37.462Z,25.40
2023-02-22T20:04:12.413Z,24.92
2023-02-22T20:06:42.731Z,24.23
2023-02-22T20:09:26.499Z,26.15
2023-02-22T20:11:54.634Z,24.80
2023-02-22T20:16:55.135Z,26.50
2023-02-22T20:21:52.010Z,27.48
2023-02-22T20:24:19.908Z,27.42
2023-02-22T20:26:49.095Z,25.48
2023-02-22T20:31:47.222Z,29.48
2023-02-22T20:36:43.494Z,26.85
2023-02-22T20:41:44.533Z,28.40
2023-02-22T20:44:18.480Z,27.20
2023-02-22T20:46:56.839Z,29.10
2023-02-22T20:49:26.696Z,33.50
2023-02-22T20:51:54.890Z,27.80
2023-02-22T20:54:22.935Z,28.85
2023-02-22T20:59:24.161Z,34.20
2023-02-22T21:01:52.801Z,57.05
2023-02-22T21:04:24.959Z,37.38
2023-02-22T21:06:53.508Z,31.75
2023-02-22T21:09:22.007Z,32.55
2023-02-22T21:11:51.195Z,31.73
2023-02-22T21:14:19.844Z,32.13
2023-02-22T21:16:51.703Z,31.62
2023-02-22T21:19:22.377Z,29.07
2023-02-22T21:24:21.342Z,29.55
2023-02-22T21:29:15.331Z,36.20
2023-02-22T21:31:43.370Z,35.00
2023-02-22T21:34:15.479Z,35.83
2023-02-22T21:39:18.601Z,32.65
2023-02-22T21:41:49.614Z,34.53
2023-02-22T21:44:19.637Z,32.60
2023-02-22T21:46:49.256Z,32.25
2023-02-22T21:49:18.365Z,29.60
2023-02-22T21:51:46.230Z,29.12
2023-02-22T21:54:16.286Z,30.05
2023-02-22T21:56:44.167Z,29.77
2023-02-22T21:59:17.813Z,43.73
2023-02-22T22:01:53.482Z,41.50
2023-02-22T22:04:28.792Z,31.73
2023-02-22T22:06:59.422Z,31.30
2023-02-22T22:09:30.857Z,32.55
2023-02-22T22:14:30.776Z,28.75
2023-02-22T22:19:28.616Z,22.95
2023-02-22T22:22:00.431Z,21.87
2023-02-22T22:24:33.437Z,21.77
2023-02-22T22:27:03.184Z,24.07
2023-02-22T22:29:33.147Z,27.77
2023-02-22T22:32:01.485Z,28.12
2023-02-22T22:34:29.674Z,26.40
2023-02-22T22:36:58.309Z,29.48
2023-02-22T22:39:26.792Z,30.95
2023-02-22T22:41:55.249Z,31.02
2023-02-22T22:44:26.161Z,31.35
2023-02-22T22:46:56.023Z,29.55
2023-02-22T22:51:50.544Z,27.27
2023-02-22T22:54:18.276Z,26.15
2023-02-22T22:56:46.208Z,23.90
2023-02-22T22:59:14.963Z,25.08
2023-02-22T23:01:44.439Z,25.80
2023-02-22T23:06:46.837Z,24.90
2023-02-22T23:11:43.991Z,22.85
2023-02-22T23:16:38.755Z,23.38
2023-02-22T23:21:32.537Z,23.12
2023-02-22T23:24:00.439Z,19.52
2023-02-22T23:26:28.472Z,19.55
2023-02-22T23:28:58.763Z,18.55
2023-02-22T23:31:28.321Z,19.48
2023-02-22T23:33:58.217Z,19.05
2023-02-22T23:36:26.943Z,19.17
2023-02-22T23:38:55.410Z,15.60
2023-02-22T23:41:24.704Z,14.83
2023-02-22T23:43:53.445Z,15.32
2023-02-22T23:46:21.220Z,14.38
2023-02-22T23:48:52.351Z,14.35
2023-02-22T23:51:27.419Z,12.93
2023-02-22T23:53:56.632Z,13.72
2023-02-22T23:56:28.037Z,13.75
2023-02-22T23:58:56.704Z,12.40
